createdAt,value
2023-04-26T00:00:12.047Z,9.41
2023-04-26T00:03:15.840Z,8.37
2023-04-26T00:06:05.801Z,7.72
2023-04-26T00:08:52.709Z,7.20
2023-04-26T00:11:39.508Z,6.90
2023-04-26T00:14:26.739Z,8.38
2023-04-26T00:17:13.133Z,10.39
2023-04-26T00:20:00.560Z,10.72
2023-04-26T00:22:47.382Z,9.50
2023-04-26T00:25:33.817Z,8.42
2023-04-26T00:28:20.354Z,7.72
2023-04-26T00:31:07.300Z,7.19
2023-04-26T00:33:54.163Z,6.73
2023-04-26T00:36:40.363Z,7.12
2023-04-26T00:39:27.524Z,9.26
2023-04-26T00:42:13.999Z,10.27
2023-04-26T00:45:01.142Z,9.25
2023-04-26T00:47:47.693Z,8.14
2023-04-26T00:50:35.409Z,7.39
2023-04-26T00:53:23.390Z,6.85
2023-04-26T00:56:11.094Z,6.39
2023-04-26T00:58:57.667Z,7.40
2023-04-26T01:01:44.622Z,9.32
2023-04-26T01:04:31.609Z,8.42
2023-04-26T01:07:18.531Z,7.42
2023-04-26T01:10:06.296Z,6.78
2023-04-26T01:12:53.742Z,6.97
2023-04-26T01:15:47.581Z,9.11
2023-04-26T01:18:35.203Z,9.92
2023-04-26T01:21:22.339Z,8.75
2023-04-26T01:24:13.236Z,7.70
2023-04-26T01:26:59.475Z,7.06
2023-04-26T01:29:46.380Z,6.60
2023-04-26T01:32:33.023Z,7.10
2023-04-26T01:35:19.638Z,9.33
2023-04-26T01:38:08.613Z,10.37
2023-04-26T01:40:55.351Z,9.38
2023-04-26T01:43:42.210Z,8.35
2023-04-26T01:46:28.624Z,7.67
2023-04-26T01:49:15.012Z,7.19
2023-04-26T01:52:02.067Z,6.82
2023-04-26T01:54:49.604Z,7.21
2023-04-26T01:57:36.362Z,9.42
2023-04-26T02:00:23.023Z,10.37
2023-04-26T02:03:09.577Z,9.29
2023-04-26T02:05:56.154Z,8.15
2023-04-26T02:08:42.630Z,7.35
2023-04-26T02:11:29.276Z,6.78
2023-04-26T02:14:15.782Z,6.84
2023-04-26T02:17:04.029Z,8.94
2023-04-26T02:19:50.750Z,9.24
2023-04-26T02:22:37.622Z,8.01
2023-04-26T02:25:24.778Z,7.16
2023-04-26T02:28:11.719Z,6.49
2023-04-26T02:30:58.699Z,6.74
2023-04-26T02:33:45.564Z,8.82
2023-04-26T02:36:33.183Z,9.74
2023-04-26T02:39:19.438Z,8.63
2023-04-26T02:42:10.334Z,7.55
2023-04-26T02:44:57.150Z,6.76
2023-04-26T02:47:44.453Z,6.21
2023-04-26T02:50:31.111Z,6.88
2023-04-26T02:53:18.076Z,8.91
2023-04-26T02:56:04.549Z,9.80
2023-04-26T02:58:51.652Z,8.84
2023-04-26T03:01:38.666Z,7.60
2023-04-26T03:04:25.468Z,6.83
2023-04-26T03:07:12.054Z,7.08
2023-04-26T03:09:58.778Z,9.15
2023-04-26T03:12:45.421Z,9.86
2023-04-26T03:15:31.696Z,8.71
2023-04-26T03:18:19.400Z,7.59
2023-04-26T03:21:06.303Z,7.00
2023-04-26T03:23:52.894Z,8.67
2023-04-26T03:26:39.640Z,9.96
2023-04-26T03:29:26.286Z,8.72
2023-04-26T03:32:13.071Z,7.56
2023-04-26T03:34:59.881Z,6.73
2023-04-26T03:37:46.476Z,8.15
2023-04-26T03:40:33.015Z,9.45
2023-04-26T03:43:19.441Z,8.41
2023-04-26T03:46:05.855Z,7.32
2023-04-26T03:48:53.525Z,7.39
2023-04-26T03:51:40.295Z,9.28
2023-04-26T03:54:27.003Z,10.29
2023-04-26T03:57:14.947Z,8.79
2023-04-26T04:00:02.031Z,7.52
2023-04-26T04:02:49.982Z,6.80
2023-04-26T04:05:41.405Z,8.12
2023-04-26T04:08:27.874Z,9.54
2023-04-26T04:11:15.803Z,8.38
2023-04-26T04:14:03.756Z,7.24
2023-04-26T04:16:50.827Z,6.53
2023-04-26T04:19:37.763Z,7.24
2023-04-26T04:22:24.692Z,9.38
2023-04-26T04:25:11.854Z,8.59
2023-04-26T04:27:59.854Z,7.57
2023-04-26T04:30:47.314Z,6.87
2023-04-26T04:33:33.841Z,8.00
2023-04-26T04:36:20.839Z,9.67
2023-04-26T04:39:13.453Z,9.06
2023-04-26T04:42:00.536Z,7.76
2023-04-26T04:44:47.757Z,6.91
2023-04-26T04:47:37.863Z,7.24
2023-04-26T04:50:25.316Z,9.79
2023-04-26T04:53:14.687Z,8.84
2023-04-26T04:56:01.577Z,7.76
2023-04-26T04:58:49.111Z,6.95
2023-04-26T05:01:38.749Z,8.07
2023-04-26T05:04:29.797Z,9.28
2023-04-26T05:07:18.517Z,8.01
2023-04-26T05:10:05.819Z,7.16
2023-04-26T05:12:52.214Z,6.82
2023-04-26T05:15:38.984Z,8.31
2023-04-26T05:18:25.868Z,9.68
2023-04-26T05:21:12.844Z,8.80
2023-04-26T05:23:59.989Z,7.75
2023-04-26T05:26:47.264Z,7.11
2023-04-26T05:29:52.943Z,6.67
2023-04-26T05:33:03.358Z,7.77
2023-04-26T05:35:58.001Z,9.69
2023-04-26T05:38:45.196Z,8.91
2023-04-26T05:41:31.622Z,8.05
2023-04-26T05:44:18.492Z,7.38
2023-04-26T05:47:05.411Z,6.99
2023-04-26T05:49:52.043Z,8.70
2023-04-26T05:52:39.109Z,9.10
2023-04-26T05:55:25.483Z,8.07
2023-04-26T05:58:12.160Z,7.34
2023-04-26T06:00:59.532Z,7.03
2023-04-26T06:03:46.837Z,8.95
2023-04-26T06:06:34.545Z,9.96
2023-04-26T06:09:21.108Z,8.95
2023-04-26T06:12:07.698Z,8.18
2023-04-26T06:14:56.372Z,7.63
2023-04-26T06:17:44.305Z,7.29
2023-04-26T06:20:30.913Z,7.11
2023-04-26T06:23:20.197Z,7.92
2023-04-26T06:26:07.346Z,9.68
2023-04-26T06:28:54.064Z,9.26
2023-04-26T06:31:41.073Z,8.60
2023-04-26T06:34:30.508Z,8.17
2023-04-26T06:37:17.292Z,7.95
2023-04-26T06:40:04.206Z,7.87
2023-04-26T06:42:51.549Z,7.76
2023-04-26T06:45:38.153Z,7.61
2023-04-26T06:48:24.802Z,7.52
2023-04-26T06:51:11.260Z,7.45
2023-04-26T06:53:59.296Z,7.49
2023-04-26T06:56:46.203Z,7.59
2023-04-26T06:59:32.498Z,7.63
2023-04-26T07:02:19.367Z,7.62
2023-04-26T07:05:06.457Z,7.62
2023-04-26T07:07:53.150Z,7.57
2023-04-26T07:10:40.093Z,7.67
2023-04-26T07:13:26.897Z,7.76
2023-04-26T07:16:13.481Z,7.92
2023-04-26T07:18:59.836Z,7.97
2023-04-26T07:21:46.741Z,8.03
2023-04-26T07:24:33.130Z,8.04
2023-04-26T07:27:19.479Z,8.20
2023-04-26T07:30:06.706Z,8.54
2023-04-26T07:32:53.348Z,8.64
2023-04-26T07:35:40.306Z,8.65
2023-04-26T07:38:27.439Z,8.76
2023-04-26T07:41:16.445Z,8.92
2023-04-26T07:44:03.210Z,8.96
2023-04-26T07:46:49.513Z,9.04
2023-04-26T07:49:36.063Z,9.03
2023-04-26T07:52:23.030Z,9.09
2023-04-26T07:55:09.694Z,9.33
2023-04-26T07:57:56.747Z,9.51
2023-04-26T08:00:43.087Z,9.47
2023-04-26T08:03:29.596Z,9.31
2023-04-26T08:06:16.868Z,9.49
2023-04-26T08:09:05.031Z,9.59
2023-04-26T08:11:51.336Z,9.50
2023-04-26T08:14:38.723Z,9.44
2023-04-26T08:17:25.211Z,9.55
2023-04-26T08:20:11.753Z,9.82
2023-04-26T08:22:59.193Z,9.90
2023-04-26T08:25:47.283Z,9.79
2023-04-26T08:28:35.852Z,9.75
2023-04-26T08:31:23.025Z,9.70
2023-04-26T08:34:11.406Z,9.58
2023-04-26T08:36:58.199Z,9.33
2023-04-26T08:39:44.899Z,9.27
2023-04-26T08:42:32.172Z,9.29
2023-04-26T08:45:20.624Z,9.35
2023-04-26T08:48:14.988Z,9.49
2023-04-26T08:51:02.528Z,9.52
2023-04-26T08:53:53.236Z,9.50
2023-04-26T08:56:44.167Z,9.46
2023-04-26T08:59:31.273Z,9.37
2023-04-26T09:02:19.883Z,9.24
2023-04-26T09:05:07.496Z,9.12
2023-04-26T09:07:57.852Z,9.18
2023-04-26T09:10:44.522Z,9.30
2023-04-26T09:13:30.917Z,9.35
2023-04-26T09:16:17.895Z,9.43
2023-04-26T09:19:04.502Z,9.53
2023-04-26T09:21:52.922Z,9.57
2023-04-26T09:24:52.173Z,9.53
2023-04-26T09:27:40.371Z,9.63
2023-04-26T09:30:28.560Z,9.74
2023-04-26T09:33:15.314Z,9.87
2023-04-26T09:36:13.392Z,9.92
2023-04-26T09:39:00.520Z,10.00
2023-04-26T09:41:47.025Z,10.08
2023-04-26T09:44:34.088Z,10.32
2023-04-26T09:47:22.169Z,10.52
2023-04-26T09:50:09.111Z,10.66
2023-04-26T09:52:56.805Z,10.68
2023-04-26T09:55:43.353Z,10.62
2023-04-26T09:58:29.985Z,10.64
2023-04-26T10:01:18.216Z,10.73
2023-04-26T10:04:06.870Z,10.82
2023-04-26T10:06:53.213Z,11.01
2023-04-26T10:09:39.959Z,11.17
2023-04-26T10:12:26.566Z,11.51
2023-04-26T10:15:13.128Z,11.77
2023-04-26T10:17:59.912Z,11.79
2023-04-26T10:20:53.135Z,11.70
2023-04-26T10:23:40.928Z,11.50
2023-04-26T10:26:54.526Z,11.12
2023-04-26T10:29:56.560Z,10.81
2023-04-26T10:32:53.248Z,10.63
2023-04-26T10:36:05.389Z,10.59
2023-04-26T10:39:25.261Z,10.53
2023-04-26T10:42:26.743Z,10.46
2023-04-26T10:45:28.205Z,10.34
2023-04-26T10:48:20.659Z,10.29
2023-04-26T10:51:12.859Z,10.29
2023-04-26T10:53:59.550Z,10.28
2023-04-26T10:56:48.966Z,10.28
2023-04-26T10:59:47.203Z,10.30
2023-04-26T11:02:57.973Z,10.35
2023-04-26T11:05:47.299Z,10.30
2023-04-26T11:08:34.341Z,10.33
2023-04-26T11:11:26.563Z,10.40
2023-04-26T11:14:14.477Z,10.64
2023-04-26T11:17:05.617Z,10.97
2023-04-26T11:19:52.171Z,11.25
2023-04-26T11:22:42.377Z,11.46
2023-04-26T11:25:29.844Z,11.54
2023-04-26T11:28:16.365Z,11.71
2023-04-26T11:31:04.241Z,11.91
2023-04-26T11:33:51.044Z,11.78
2023-04-26T11:36:38.738Z,11.49
2023-04-26T11:39:25.401Z,11.17
2023-04-26T11:42:12.607Z,10.90
2023-04-26T11:45:01.642Z,10.63
2023-04-26T11:47:48.959Z,10.50
2023-04-26T11:50:37.580Z,10.37
2023-04-26T11:53:24.755Z,10.28
2023-04-26T11:56:18.825Z,10.24
2023-04-26T11:59:05.983Z,10.35
2023-04-26T12:01:53.627Z,10.53
2023-04-26T12:04:41.309Z,10.71
2023-04-26T12:07:34.611Z,10.92
2023-04-26T12:10:26.029Z,11.17
2023-04-26T12:13:14.088Z,11.53
2023-04-26T12:18:57.069Z,11.69
2023-04-26T12:21:44.598Z,11.75
2023-04-26T12:24:34.681Z,11.93
2023-04-26T12:27:22.091Z,11.98
2023-04-26T12:30:09.258Z,11.91
2023-04-26T12:33:05.770Z,11.82
2023-04-26T12:35:57.747Z,11.74
2023-04-26T12:38:44.382Z,11.63
2023-04-26T12:41:31.141Z,11.59
2023-04-26T12:44:19.596Z,11.91
2023-04-26T12:47:08.425Z,12.83
2023-04-26T12:49:55.095Z,13.24
2023-04-26T12:52:44.460Z,13.43
2023-04-26T12:55:32.548Z,13.15
2023-04-26T12:58:19.453Z,12.79
2023-04-26T13:01:06.184Z,12.45
2023-04-26T13:03:52.908Z,12.10
2023-04-26T13:06:39.893Z,11.74
2023-04-26T13:09:26.284Z,11.51
2023-04-26T13:12:14.221Z,11.76
2023-04-26T13:15:01.148Z,12.88
2023-04-26T13:17:47.733Z,14.22
2023-04-26T13:20:34.413Z,14.78
2023-04-26T13:23:21.094Z,14.69
2023-04-26T13:26:08.887Z,14.41
2023-04-26T13:28:55.937Z,14.09
2023-04-26T13:31:43.266Z,14.14
2023-04-26T13:34:30.916Z,14.38
2023-04-26T13:37:20.274Z,15.41
2023-04-26T13:40:07.624Z,16.75
2023-04-26T13:42:53.990Z,17.59
2023-04-26T13:45:40.519Z,18.23
2023-04-26T13:48:27.985Z,17.33
2023-04-26T13:51:14.399Z,16.17
2023-04-26T13:54:00.940Z,15.26
2023-04-26T13:56:47.610Z,14.43
2023-04-26T13:59:34.003Z,13.80
2023-04-26T14:02:21.652Z,13.18
2023-04-26T14:05:09.203Z,12.93
2023-04-26T14:07:55.876Z,12.80
2023-04-26T14:10:42.019Z,12.69
2023-04-26T14:13:28.423Z,12.86
2023-04-26T14:16:15.162Z,13.37
2023-04-26T14:19:02.121Z,14.25
2023-04-26T14:21:48.564Z,15.50
2023-04-26T14:24:35.457Z,17.11
2023-04-26T14:27:22.168Z,17.89
2023-04-26T14:30:09.132Z,17.15
2023-04-26T14:32:55.801Z,16.18
2023-04-26T14:35:42.173Z,15.83
2023-04-26T14:38:28.815Z,16.56
2023-04-26T14:41:16.609Z,16.01
2023-04-26T14:44:02.904Z,14.90
2023-04-26T14:46:49.409Z,13.98
2023-04-26T14:49:36.226Z,13.29
2023-04-26T14:52:26.931Z,12.75
2023-04-26T14:55:22.466Z,12.32
2023-04-26T14:58:08.717Z,12.12
2023-04-26T15:00:55.430Z,11.94
2023-04-26T15:03:42.039Z,11.79
2023-04-26T15:06:28.910Z,11.53
2023-04-26T15:09:15.385Z,11.45
2023-04-26T15:12:02.608Z,11.69
2023-04-26T15:14:49.131Z,11.83
2023-04-26T15:17:35.719Z,11.84
2023-04-26T15:20:22.482Z,11.80
2023-04-26T15:23:09.258Z,11.71
2023-04-26T15:25:55.526Z,11.58
2023-04-26T15:28:41.886Z,11.55
2023-04-26T15:31:28.736Z,11.56
2023-04-26T15:34:16.682Z,11.64
2023-04-26T15:37:03.053Z,11.78
2023-04-26T15:39:49.769Z,12.11
2023-04-26T15:42:36.680Z,12.64
2023-04-26T15:45:23.301Z,13.02
2023-04-26T15:48:12.159Z,13.09
2023-04-26T15:50:58.522Z,12.97
2023-04-26T15:53:45.423Z,12.83
2023-04-26T15:56:32.119Z,12.61
2023-04-26T15:59:18.810Z,12.42
2023-04-26T16:02:06.295Z,12.21
2023-04-26T16:04:53.204Z,12.04
2023-04-26T16:07:40.319Z,11.96
2023-04-26T16:10:27.167Z,11.93
2023-04-26T16:13:13.817Z,12.14
2023-04-26T16:16:00.709Z,12.13
2023-04-26T16:18:47.387Z,12.06
2023-04-26T16:21:34.263Z,11.89
2023-04-26T16:24:21.989Z,11.64
2023-04-26T16:27:09.584Z,11.44
2023-04-26T16:29:56.126Z,11.18
2023-04-26T16:32:43.501Z,10.93
2023-04-26T16:35:30.586Z,10.71
2023-04-26T16:38:18.634Z,10.50
2023-04-26T16:41:05.222Z,10.31
2023-04-26T16:43:53.150Z,10.11
2023-04-26T16:46:40.079Z,10.01
2023-04-26T16:49:26.703Z,9.93
2023-04-26T16:52:13.033Z,9.89
2023-04-26T16:54:59.692Z,9.87
2023-04-26T16:57:46.512Z,9.90
2023-04-26T17:00:33.005Z,9.97
2023-04-26T17:03:19.682Z,10.29
2023-04-26T17:06:07.783Z,11.06
2023-04-26T17:08:54.278Z,12.13
2023-04-26T17:11:43.569Z,13.36
2023-04-26T17:14:30.232Z,14.40
2023-04-26T17:17:16.834Z,15.25
2023-04-26T17:20:06.893Z,15.70
2023-04-26T17:22:53.375Z,16.03
2023-04-26T17:25:39.680Z,15.96
2023-04-26T17:28:26.556Z,15.71
2023-04-26T17:31:12.935Z,15.17
2023-04-26T17:33:59.302Z,14.33
2023-04-26T17:36:47.606Z,13.39
2023-04-26T17:39:33.571Z,12.58
2023-04-26T17:42:20.761Z,11.84
2023-04-26T17:45:07.728Z,11.25
2023-04-26T17:47:54.014Z,10.74
2023-04-26T17:50:40.573Z,10.31
2023-04-26T17:53:27.545Z,9.97
2023-04-26T17:56:13.864Z,9.70
2023-04-26T17:59:03.024Z,9.46
2023-04-26T18:01:50.065Z,9.25
2023-04-26T18:04:37.282Z,9.05
2023-04-26T18:07:23.772Z,8.87
2023-04-26T18:10:10.969Z,8.69
2023-04-26T18:12:57.841Z,8.53
2023-04-26T18:15:44.253Z,8.37
2023-04-26T18:18:30.678Z,8.24
2023-04-26T18:21:17.082Z,8.13
2023-04-26T18:24:03.810Z,8.03
2023-04-26T18:26:49.988Z,7.94
2023-04-26T18:29:36.643Z,7.86
2023-04-26T18:32:23.177Z,7.82
2023-04-26T18:35:10.153Z,7.79
2023-04-26T18:37:57.226Z,7.73
2023-04-26T18:40:44.725Z,7.65
2023-04-26T18:43:31.642Z,7.60
2023-04-26T18:46:18.194Z,7.53
2023-04-26T18:49:05.080Z,7.44
2023-04-26T18:51:51.964Z,7.37
2023-04-26T18:54:39.002Z,7.29
2023-04-26T18:57:26.788Z,7.20
2023-04-26T19:00:13.667Z,7.10
2023-04-26T19:03:00.758Z,7.00
2023-04-26T19:05:47.337Z,6.90
2023-04-26T19:08:34.149Z,6.81
2023-04-26T19:11:21.283Z,6.71
2023-04-26T19:14:07.739Z,6.63
2023-04-26T19:16:54.375Z,6.55
2023-04-26T19:19:40.665Z,6.47
2023-04-26T19:22:27.329Z,6.41
2023-04-26T19:25:14.898Z,6.35
2023-04-26T19:28:01.596Z,6.28
2023-04-26T19:30:47.951Z,6.18
2023-04-26T19:33:34.640Z,6.06
2023-04-26T19:36:21.011Z,5.93
2023-04-26T19:39:07.155Z,5.82
2023-04-26T19:41:53.571Z,5.74
2023-04-26T19:44:39.977Z,5.64
2023-04-26T19:47:26.831Z,5.53
2023-04-26T19:50:13.461Z,5.37
2023-04-26T19:53:00.313Z,5.25
2023-04-26T19:55:46.911Z,5.18
2023-04-26T19:58:33.544Z,5.12
2023-04-26T20:01:20.557Z,5.06
2023-04-26T20:04:07.339Z,4.99
2023-04-26T20:06:53.859Z,4.93
2023-04-26T20:09:40.351Z,4.88
2023-04-26T20:12:27.387Z,4.83
2023-04-26T20:15:15.216Z,4.77
2023-04-26T20:18:02.549Z,4.73
2023-04-26T20:20:51.521Z,4.69
2023-04-26T20:23:38.210Z,4.66
2023-04-26T20:26:24.911Z,4.62
2023-04-26T20:29:11.506Z,4.58
2023-04-26T20:31:58.276Z,4.51
2023-04-26T20:34:45.124Z,4.45
2023-04-26T20:37:32.004Z,4.40
2023-04-26T20:40:18.342Z,4.34
2023-04-26T20:43:08.862Z,4.30
2023-04-26T20:45:56.011Z,4.26
2023-04-26T20:48:43.579Z,4.24
2023-04-26T20:51:30.546Z,4.23
2023-04-26T20:54:17.182Z,4.74
2023-04-26T20:57:04.106Z,7.15
2023-04-26T20:59:50.819Z,9.08
2023-04-26T21:02:40.593Z,9.84
2023-04-26T21:05:27.835Z,8.80
2023-04-26T21:08:15.272Z,7.82
2023-04-26T21:11:02.196Z,7.22
2023-04-26T21:13:49.577Z,6.80
2023-04-26T21:16:36.233Z,6.42
2023-04-26T21:19:22.539Z,6.10
2023-04-26T21:22:11.917Z,5.76
2023-04-26T21:24:58.461Z,5.44
2023-04-26T21:27:46.353Z,5.18
2023-04-26T21:30:33.462Z,4.95
2023-04-26T21:33:20.216Z,4.76
2023-04-26T21:36:07.418Z,4.60
2023-04-26T21:38:55.464Z,4.46
2023-04-26T21:41:42.004Z,4.35
2023-04-26T21:44:29.726Z,4.80
2023-04-26T21:47:16.377Z,7.17
2023-04-26T21:50:03.528Z,9.07
2023-04-26T21:52:50.625Z,9.71
2023-04-26T21:55:37.650Z,8.55
2023-04-26T21:58:24.343Z,7.49
2023-04-26T22:01:14.411Z,6.78
2023-04-26T22:04:02.844Z,6.27
2023-04-26T22:06:50.476Z,5.86
2023-04-26T22:09:37.126Z,5.51
2023-04-26T22:12:23.837Z,5.21
2023-04-26T22:15:11.139Z,5.48
2023-04-26T22:17:57.705Z,7.66
2023-04-26T22:20:44.461Z,9.40
2023-04-26T22:23:31.478Z,9.03
2023-04-26T22:26:18.457Z,7.76
2023-04-26T22:29:05.081Z,6.90
2023-04-26T22:31:51.903Z,6.34
2023-04-26T22:34:38.255Z,5.98
2023-04-26T22:37:24.841Z,5.72
2023-04-26T22:40:13.004Z,5.50
2023-04-26T22:42:59.642Z,5.31
2023-04-26T22:45:46.373Z,5.14
2023-04-26T22:48:33.030Z,4.97
2023-04-26T22:51:19.659Z,5.41
2023-04-26T22:54:06.563Z,7.77
2023-04-26T22:56:52.918Z,9.55
2023-04-26T22:59:39.252Z,9.08
2023-04-26T23:02:26.052Z,7.96
2023-04-26T23:05:12.693Z,7.15
2023-04-26T23:07:59.084Z,6.59
2023-04-26T23:10:45.580Z,6.23
2023-04-26T23:13:32.497Z,5.95
2023-04-26T23:16:18.772Z,5.68
2023-04-26T23:19:05.257Z,5.47
2023-04-26T23:21:51.805Z,5.28
2023-04-26T23:24:38.300Z,5.14
2023-04-26T23:27:24.925Z,5.00
2023-04-26T23:30:14.011Z,4.87
2023-04-26T23:33:00.764Z,4.75
2023-04-26T23:35:47.344Z,5.18
2023-04-26T23:38:33.427Z,7.52
2023-04-26T23:41:20.102Z,9.44
2023-04-26T23:44:07.298Z,9.62
2023-04-26T23:46:53.686Z,8.39
2023-04-26T23:49:40.360Z,7.50
2023-04-26T23:52:27.714Z,6.93
2023-04-26T23:55:13.991Z,6.54
2023-04-26T23:58:00.577Z,6.21
